sensor_id;sensor_type;location;lat;lon;timestamp;P1;durP1;ratioP1;P2;durP2;ratioP2
61393;SDS011;48555;50.952;-0.120;2024-02-23T00:00:35;11.00;;;1.90;;
61393;SDS011;48555;50.952;-0.120;2024-02-23T00:03:01;8.90;;;2.13;;
61393;SDS011;48555;50.952;-0.120;2024-02-23T00:05:26;9.82;;;2.45;;
61393;SDS011;48555;50.952;-0.120;2024-02-23T00:07:51;8.07;;;1.77;;
61393;SDS011;48555;50.952;-0.120;2024-02-23T00:10:17;9.93;;;1.90;;
61393;SDS011;48555;50.952;-0.120;2024-02-23T00:12:42;6.65;;;2.10;;
61393;SDS011;48555;50.952;-0.120;2024-02-23T00:15:09;11.23;;;2.05;;
61393;SDS011;48555;50.952;-0.120;2024-02-23T00:17:35;6.90;;;1.67;;
61393;SDS011;48555;50.952;-0.120;2024-02-23T00:20:00;10.77;;;2.15;;
61393;SDS011;48555;50.952;-0.120;2024-02-23T00:22:26;9.88;;;1.95;;
61393;SDS011;48555;50.952;-0.120;2024-02-23T00:24:51;9.18;;;2.35;;
61393;SDS011;48555;50.952;-0.120;2024-02-23T00:27:16;8.55;;;1.88;;
61393;SDS011;48555;50.952;-0.120;2024-02-23T00:29:42;10.55;;;2.08;;
61393;SDS011;48555;50.952;-0.120;2024-02-23T00:32:07;6.28;;;1.95;;
61393;SDS011;48555;50.952;-0.120;2024-02-23T00:34:33;9.27;;;1.60;;
61393;SDS011;48555;50.952;-0.120;2024-02-23T00:36:58;8.73;;;1.63;;
61393;SDS011;48555;50.952;-0.120;2024-02-23T00:39:24;7.50;;;1.52;;
61393;SDS011;48555;50.952;-0.120;2024-02-23T00:41:49;7.65;;;1.95;;
61393;SDS011;48555;50.952;-0.120;2024-02-23T00:44:14;8.70;;;2.03;;
61393;SDS011;48555;50.952;-0.120;2024-02-23T00:46:40;7.20;;;2.03;;
61393;SDS011;48555;50.952;-0.120;2024-02-23T00:49:05;8.18;;;1.30;;
61393;SDS011;48555;50.952;-0.120;2024-02-23T00:51:31;7.60;;;1.50;;
61393;SDS011;48555;50.952;-0.120;2024-02-23T00:53:57;9.18;;;1.70;;
61393;SDS011;48555;50.952;-0.120;2024-02-23T00:56:23;10.20;;;1.50;;
61393;SDS011;48555;50.952;-0.120;2024-02-23T00:58:48;5.60;;;1.17;;
61393;SDS011;48555;50.952;-0.120;2024-02-23T01:01:14;5.93;;;1.25;;
61393;SDS011;48555;50.952;-0.120;2024-02-23T01:03:39;5.93;;;0.85;;
61393;SDS011;48555;50.952;-0.120;2024-02-23T01:06:04;5.13;;;1.00;;
61393;SDS011;48555;50.952;-0.120;2024-02-23T01:08:30;6.40;;;1.50;;
61393;SDS011;48555;50.952;-0.120;2024-02-23T01:10:56;5.20;;;0.68;;
61393;SDS011;48555;50.952;-0.120;2024-02-23T01:13:21;3.10;;;0.82;;
61393;SDS011;48555;50.952;-0.120;2024-02-23T01:15:47;7.47;;;1.30;;
61393;SDS011;48555;50.952;-0.120;2024-02-23T01:18:12;4.38;;;1.02;;
61393;SDS011;48555;50.952;-0.120;2024-02-23T01:20:37;4.70;;;1.45;;
61393;SDS011;48555;50.952;-0.120;2024-02-23T01:23:03;4.38;;;1.13;;
61393;SDS011;48555;50.952;-0.120;2024-02-23T01:25:28;5.95;;;1.30;;
61393;SDS011;48555;50.952;-0.120;2024-02-23T01:27:54;4.70;;;1.10;;
61393;SDS011;48555;50.952;-0.120;2024-02-23T01:30:19;4.68;;;0.82;;
61393;SDS011;48555;50.952;-0.120;2024-02-23T01:32:45;8.95;;;1.55;;
61393;SDS011;48555;50.952;-0.120;2024-02-23T01:35:11;5.20;;;1.08;;
61393;SDS011;48555;50.952;-0.120;2024-02-23T01:37:36;14.80;;;1.83;;
61393;SDS011;48555;50.952;-0.120;2024-02-23T01:40:02;5.80;;;1.30;;
61393;SDS011;48555;50.952;-0.120;2024-02-23T01:42:27;6.07;;;1.30;;
61393;SDS011;48555;50.952;-0.120;2024-02-23T01:44:53;7.55;;;1.27;;
61393;SDS011;48555;50.952;-0.120;2024-02-23T01:47:20;7.13;;;1.10;;
61393;SDS011;48555;50.952;-0.120;2024-02-23T01:49:46;4.28;;;1.35;;
61393;SDS011;48555;50.952;-0.120;2024-02-23T01:52:12;8.25;;;1.60;;
61393;SDS011;48555;50.952;-0.120;2024-02-23T01:54:39;8.23;;;1.45;;
61393;SDS011;48555;50.952;-0.120;2024-02-23T01:57:04;4.28;;;1.00;;
61393;SDS011;48555;50.952;-0.120;2024-02-23T01:59:31;7.55;;;1.23;;
61393;SDS011;48555;50.952;-0.120;2024-02-23T02:01:57;6.93;;;1.25;;
61393;SDS011;48555;50.952;-0.120;2024-02-23T02:04:23;11.73;;;1.52;;
61393;SDS011;48555;50.952;-0.120;2024-02-23T02:06:48;7.30;;;1.20;;
61393;SDS011;48555;50.952;-0.120;2024-02-23T02:09:14;5.47;;;1.10;;
61393;SDS011;48555;50.952;-0.120;2024-02-23T02:11:48;6.03;;;1.00;;
61393;SDS011;48555;50.952;-0.120;2024-02-23T02:14:14;6.53;;;1.40;;
61393;SDS011;48555;50.952;-0.120;2024-02-23T02:16:42;3.20;;;0.88;;
61393;SDS011;48555;50.952;-0.120;2024-02-23T02:19:11;8.13;;;1.38;;
61393;SDS011;48555;50.952;-0.120;2024-02-23T02:21:37;4.13;;;0.77;;
61393;SDS011;48555;50.952;-0.120;2024-02-23T02:24:03;7.72;;;0.90;;
61393;SDS011;48555;50.952;-0.120;2024-02-23T02:26:29;4.75;;;1.00;;
61393;SDS011;48555;50.952;-0.120;2024-02-23T02:28:55;3.53;;;1.10;;
61393;SDS011;48555;50.952;-0.120;2024-02-23T02:31:20;4.53;;;0.75;;
61393;SDS011;48555;50.952;-0.120;2024-02-23T02:33:47;7.00;;;1.15;;
61393;SDS011;48555;50.952;-0.120;2024-02-23T02:36:12;6.60;;;1.17;;
61393;SDS011;48555;50.952;-0.120;2024-02-23T02:38:38;9.05;;;1.48;;
61393;SDS011;48555;50.952;-0.120;2024-02-23T02:41:03;5.35;;;1.13;;
61393;SDS011;48555;50.952;-0.120;2024-02-23T02:43:29;3.78;;;0.80;;
61393;SDS011;48555;50.952;-0.120;2024-02-23T02:45:55;3.00;;;0.70;;
61393;SDS011;48555;50.952;-0.120;2024-02-23T02:48:22;7.03;;;0.98;;
61393;SDS011;48555;50.952;-0.120;2024-02-23T02:50:47;2.58;;;0.70;;
61393;SDS011;48555;50.952;-0.120;2024-02-23T02:53:14;3.42;;;0.65;;
61393;SDS011;48555;50.952;-0.120;2024-02-23T02:55:41;2.33;;;0.52;;
61393;SDS011;48555;50.952;-0.120;2024-02-23T02:58:07;3.50;;;0.82;;
61393;SDS011;48555;50.952;-0.120;2024-02-23T03:00:33;3.72;;;0.57;;
61393;SDS011;48555;50.952;-0.120;2024-02-23T03:02:58;2.03;;;0.60;;
61393;SDS011;48555;50.952;-0.120;2024-02-23T03:05:23;2.97;;;0.57;;
61393;SDS011;48555;50.952;-0.120;2024-02-23T03:07:49;2.28;;;0.40;;
61393;SDS011;48555;50.952;-0.120;2024-02-23T03:10:14;3.17;;;0.47;;
61393;SDS011;48555;50.952;-0.120;2024-02-23T03:12:40;2.80;;;0.43;;
61393;SDS011;48555;50.952;-0.120;2024-02-23T03:15:06;3.45;;;0.85;;
61393;SDS011;48555;50.952;-0.120;2024-02-23T03:17:32;2.65;;;0.68;;
61393;SDS011;48555;50.952;-0.120;2024-02-23T03:19:57;2.25;;;0.35;;
61393;SDS011;48555;50.952;-0.120;2024-02-23T03:22:23;3.03;;;0.32;;
61393;SDS011;48555;50.952;-0.120;2024-02-23T03:24:48;2.88;;;0.60;;
61393;SDS011;48555;50.952;-0.120;2024-02-23T03:27:14;4.68;;;0.90;;
61393;SDS011;48555;50.952;-0.120;2024-02-23T03:29:39;4.65;;;0.77;;
61393;SDS011;48555;50.952;-0.120;2024-02-23T03:32:05;3.58;;;0.90;;
61393;SDS011;48555;50.952;-0.120;2024-02-23T03:34:31;5.07;;;0.90;;
61393;SDS011;48555;50.952;-0.120;2024-02-23T03:36:56;3.15;;;0.90;;
61393;SDS011;48555;50.952;-0.120;2024-02-23T03:39:23;4.78;;;0.85;;
61393;SDS011;48555;50.952;-0.120;2024-02-23T03:41:48;6.35;;;1.10;;
61393;SDS011;48555;50.952;-0.120;2024-02-23T03:44:13;6.10;;;0.93;;
61393;SDS011;48555;50.952;-0.120;2024-02-23T03:46:39;4.75;;;0.60;;
61393;SDS011;48555;50.952;-0.120;2024-02-23T03:49:04;6.32;;;0.90;;
61393;SDS011;48555;50.952;-0.120;2024-02-23T03:51:30;6.13;;;1.10;;
61393;SDS011;48555;50.952;-0.120;2024-02-23T03:53:57;4.40;;;0.77;;
61393;SDS011;48555;50.952;-0.120;2024-02-23T03:56:22;6.55;;;1.10;;
61393;SDS011;48555;50.952;-0.120;2024-02-23T03:58:48;7.28;;;1.63;;
61393;SDS011;48555;50.952;-0.120;2024-02-23T04:01:13;5.85;;;1.27;;
61393;SDS011;48555;50.952;-0.120;2024-02-23T04:03:38;5.35;;;0.95;;
61393;SDS011;48555;50.952;-0.120;2024-02-23T04:06:04;5.13;;;1.33;;
61393;SDS011;48555;50.952;-0.120;2024-02-23T04:08:30;4.85;;;0.85;;
61393;SDS011;48555;50.952;-0.120;2024-02-23T04:10:56;9.23;;;1.38;;
61393;SDS011;48555;50.952;-0.120;2024-02-23T04:13:21;8.27;;;1.25;;
61393;SDS011;48555;50.952;-0.120;2024-02-23T04:15:47;3.65;;;0.80;;
61393;SDS011;48555;50.952;-0.120;2024-02-23T04:18:12;4.68;;;1.08;;
61393;SDS011;48555;50.952;-0.120;2024-02-23T04:20:37;6.43;;;0.90;;
61393;SDS011;48555;50.952;-0.120;2024-02-23T04:23:03;2.47;;;0.90;;
61393;SDS011;48555;50.952;-0.120;2024-02-23T04:25:28;4.72;;;0.95;;
61393;SDS011;48555;50.952;-0.120;2024-02-23T04:27:53;4.93;;;0.90;;
61393;SDS011;48555;50.952;-0.120;2024-02-23T04:30:19;4.88;;;1.00;;
61393;SDS011;48555;50.952;-0.120;2024-02-23T04:32:44;5.78;;;1.15;;
61393;SDS011;48555;50.952;-0.120;2024-02-23T04:35:10;5.72;;;1.20;;
61393;SDS011;48555;50.952;-0.120;2024-02-23T04:37:35;6.82;;;0.95;;
61393;SDS011;48555;50.952;-0.120;2024-02-23T04:40:00;5.60;;;0.90;;
61393;SDS011;48555;50.952;-0.120;2024-02-23T04:42:26;6.03;;;0.98;;
61393;SDS011;48555;50.952;-0.120;2024-02-23T04:44:52;5.07;;;1.02;;
61393;SDS011;48555;50.952;-0.120;2024-02-23T04:47:19;4.80;;;0.98;;
61393;SDS011;48555;50.952;-0.120;2024-02-23T04:49:45;2.38;;;0.47;;
61393;SDS011;48555;50.952;-0.120;2024-02-23T04:52:10;3.72;;;0.77;;
61393;SDS011;48555;50.952;-0.120;2024-02-23T04:54:36;5.55;;;0.82;;
61393;SDS011;48555;50.952;-0.120;2024-02-23T04:57:01;2.88;;;1.00;;
61393;SDS011;48555;50.952;-0.120;2024-02-23T04:59:27;6.07;;;0.90;;
61393;SDS011;48555;50.952;-0.120;2024-02-23T05:01:53;5.10;;;0.80;;
61393;SDS011;48555;50.952;-0.120;2024-02-23T05:04:18;4.60;;;1.00;;
61393;SDS011;48555;50.952;-0.120;2024-02-23T05:06:43;4.13;;;0.95;;
61393;SDS011;48555;50.952;-0.120;2024-02-23T05:09:09;4.82;;;1.13;;
61393;SDS011;48555;50.952;-0.120;2024-02-23T05:11:34;5.97;;;1.20;;
61393;SDS011;48555;50.952;-0.120;2024-02-23T05:14:00;3.83;;;0.93;;
61393;SDS011;48555;50.952;-0.120;2024-02-23T05:16:25;2.92;;;0.90;;
61393;SDS011;48555;50.952;-0.120;2024-02-23T05:18:51;5.80;;;1.27;;
61393;SDS011;48555;50.952;-0.120;2024-02-23T05:21:16;6.40;;;1.02;;
61393;SDS011;48555;50.952;-0.120;2024-02-23T05:23:42;4.63;;;1.20;;
61393;SDS011;48555;50.952;-0.120;2024-02-23T05:26:07;2.47;;;0.77;;
61393;SDS011;48555;50.952;-0.120;2024-02-23T05:28:33;5.10;;;0.90;;
61393;SDS011;48555;50.952;-0.120;2024-02-23T05:30:58;4.35;;;0.85;;
61393;SDS011;48555;50.952;-0.120;2024-02-23T05:33:23;2.78;;;0.73;;
61393;SDS011;48555;50.952;-0.120;2024-02-23T05:35:49;2.40;;;0.80;;
61393;SDS011;48555;50.952;-0.120;2024-02-23T05:38:15;4.68;;;0.70;;
61393;SDS011;48555;50.952;-0.120;2024-02-23T05:40:40;3.53;;;0.90;;
61393;SDS011;48555;50.952;-0.120;2024-02-23T05:43:05;4.10;;;1.00;;
61393;SDS011;48555;50.952;-0.120;2024-02-23T05:45:31;2.78;;;0.60;;
61393;SDS011;48555;50.952;-0.120;2024-02-23T05:47:56;8.30;;;0.90;;
61393;SDS011;48555;50.952;-0.120;2024-02-23T05:50:22;3.90;;;0.82;;
61393;SDS011;48555;50.952;-0.120;2024-02-23T05:52:47;4.50;;;0.75;;
61393;SDS011;48555;50.952;-0.120;2024-02-23T05:55:13;4.47;;;0.95;;
61393;SDS011;48555;50.952;-0.120;2024-02-23T05:57:38;2.15;;;0.50;;
61393;SDS011;48555;50.952;-0.120;2024-02-23T06:00:04;3.63;;;0.77;;
61393;SDS011;48555;50.952;-0.120;2024-02-23T06:02:30;7.10;;;1.58;;
61393;SDS011;48555;50.952;-0.120;2024-02-23T06:04:55;4.45;;;0.80;;
61393;SDS011;48555;50.952;-0.120;2024-02-23T06:07:21;1.75;;;0.45;;
61393;SDS011;48555;50.952;-0.120;2024-02-23T06:09:52;4.32;;;0.98;;
61393;SDS011;48555;50.952;-0.120;2024-02-23T06:12:17;4.82;;;0.93;;
61393;SDS011;48555;50.952;-0.120;2024-02-23T06:14:43;4.55;;;0.80;;
61393;SDS011;48555;50.952;-0.120;2024-02-23T06:17:08;4.72;;;0.95;;
61393;SDS011;48555;50.952;-0.120;2024-02-23T06:19:33;5.20;;;1.15;;
61393;SDS011;48555;50.952;-0.120;2024-02-23T06:21:59;5.85;;;0.80;;
61393;SDS011;48555;50.952;-0.120;2024-02-23T06:24:24;8.18;;;1.17;;
61393;SDS011;48555;50.952;-0.120;2024-02-23T06:26:49;3.28;;;0.93;;
61393;SDS011;48555;50.952;-0.120;2024-02-23T06:29:16;9.43;;;1.35;;
61393;SDS011;48555;50.952;-0.120;2024-02-23T06:31:41;6.35;;;1.10;;
61393;SDS011;48555;50.952;-0.120;2024-02-23T06:34:07;7.32;;;1.00;;
61393;SDS011;48555;50.952;-0.120;2024-02-23T06:36:33;4.30;;;1.05;;
61393;SDS011;48555;50.952;-0.120;2024-02-23T06:38:58;5.30;;;1.75;;
61393;SDS011;48555;50.952;-0.120;2024-02-23T06:41:24;4.68;;;1.10;;
61393;SDS011;48555;50.952;-0.120;2024-02-23T06:43:49;4.32;;;1.10;;
61393;SDS011;48555;50.952;-0.120;2024-02-23T06:46:18;4.95;;;0.90;;
61393;SDS011;48555;50.952;-0.120;2024-02-23T06:48:45;3.97;;;0.93;;
61393;SDS011;48555;50.952;-0.120;2024-02-23T06:51:11;6.03;;;1.33;;
61393;SDS011;48555;50.952;-0.120;2024-02-23T06:53:36;10.27;;;1.45;;
61393;SDS011;48555;50.952;-0.120;2024-02-23T06:56:02;3.97;;;0.95;;
61393;SDS011;48555;50.952;-0.120;2024-02-23T06:58:28;5.80;;;1.73;;
61393;SDS011;48555;50.952;-0.120;2024-02-23T07:00:54;4.40;;;1.10;;
61393;SDS011;48555;50.952;-0.120;2024-02-23T07:03:19;6.32;;;1.10;;
61393;SDS011;48555;50.952;-0.120;2024-02-23T07:05:45;11.15;;;1.38;;
61393;SDS011;48555;50.952;-0.120;2024-02-23T07:08:11;6.55;;;1.40;;
61393;SDS011;48555;50.952;-0.120;2024-02-23T07:10:36;5.72;;;1.00;;
61393;SDS011;48555;50.952;-0.120;2024-02-23T07:13:02;7.07;;;1.25;;
61393;SDS011;48555;50.952;-0.120;2024-02-23T07:15:27;5.65;;;1.67;;
61393;SDS011;48555;50.952;-0.120;2024-02-23T07:17:53;4.88;;;1.17;;
61393;SDS011;48555;50.952;-0.120;2024-02-23T07:20:18;5.88;;;1.55;;
61393;SDS011;48555;50.952;-0.120;2024-02-23T07:22:46;4.50;;;1.30;;
61393;SDS011;48555;50.952;-0.120;2024-02-23T07:25:15;6.53;;;1.60;;
61393;SDS011;48555;50.952;-0.120;2024-02-23T07:27:41;5.40;;;1.17;;
61393;SDS011;48555;50.952;-0.120;2024-02-23T07:30:07;5.28;;;1.23;;
61393;SDS011;48555;50.952;-0.120;2024-02-23T07:32:33;6.60;;;1.23;;
61393;SDS011;48555;50.952;-0.120;2024-02-23T07:34:58;6.32;;;1.15;;
61393;SDS011;48555;50.952;-0.120;2024-02-23T07:37:25;8.85;;;1.35;;
61393;SDS011;48555;50.952;-0.120;2024-02-23T07:39:52;5.78;;;1.10;;
61393;SDS011;48555;50.952;-0.120;2024-02-23T07:42:17;4.75;;;1.00;;
61393;SDS011;48555;50.952;-0.120;2024-02-23T07:44:43;6.20;;;1.60;;
61393;SDS011;48555;50.952;-0.120;2024-02-23T07:47:09;6.80;;;1.20;;
61393;SDS011;48555;50.952;-0.120;2024-02-23T07:49:36;7.80;;;1.25;;
61393;SDS011;48555;50.952;-0.120;2024-02-23T07:52:01;6.13;;;1.10;;
61393;SDS011;48555;50.952;-0.120;2024-02-23T07:54:27;5.57;;;1.17;;
61393;SDS011;48555;50.952;-0.120;2024-02-23T07:56:52;4.35;;;0.95;;
61393;SDS011;48555;50.952;-0.120;2024-02-23T07:59:18;7.45;;;1.50;;
61393;SDS011;48555;50.952;-0.120;2024-02-23T08:01:43;4.45;;;0.85;;
61393;SDS011;48555;50.952;-0.120;2024-02-23T08:04:08;6.00;;;1.00;;
61393;SDS011;48555;50.952;-0.120;2024-02-23T08:06:34;5.25;;;1.15;;
61393;SDS011;48555;50.952;-0.120;2024-02-23T08:08:59;5.15;;;1.30;;
61393;SDS011;48555;50.952;-0.120;2024-02-23T08:11:24;6.50;;;1.00;;
61393;SDS011;48555;50.952;-0.120;2024-02-23T08:13:50;4.22;;;1.02;;
61393;SDS011;48555;50.952;-0.120;2024-02-23T08:16:16;3.83;;;1.17;;
61393;SDS011;48555;50.952;-0.120;2024-02-23T08:18:42;4.38;;;1.20;;
61393;SDS011;48555;50.952;-0.120;2024-02-23T08:21:07;5.10;;;1.08;;
61393;SDS011;48555;50.952;-0.120;2024-02-23T08:23:35;10.02;;;1.80;;
61393;SDS011;48555;50.952;-0.120;2024-02-23T08:26:01;5.75;;;1.25;;
61393;SDS011;48555;50.952;-0.120;2024-02-23T08:28:26;4.63;;;1.35;;
61393;SDS011;48555;50.952;-0.120;2024-02-23T08:30:52;5.13;;;1.20;;
61393;SDS011;48555;50.952;-0.120;2024-02-23T08:33:18;5.28;;;0.95;;
61393;SDS011;48555;50.952;-0.120;2024-02-23T08:35:43;8.60;;;1.30;;
61393;SDS011;48555;50.952;-0.120;2024-02-23T08:38:09;8.23;;;1.75;;
61393;SDS011;48555;50.952;-0.120;2024-02-23T08:40:36;6.30;;;1.48;;
61393;SDS011;48555;50.952;-0.120;2024-02-23T08:43:01;8.27;;;1.60;;
61393;SDS011;48555;50.952;-0.120;2024-02-23T08:45:26;8.45;;;1.70;;
61393;SDS011;48555;50.952;-0.120;2024-02-23T08:47:52;7.72;;;1.58;;
61393;SDS011;48555;50.952;-0.120;2024-02-23T08:50:17;5.93;;;1.42;;
61393;SDS011;48555;50.952;-0.120;2024-02-23T08:52:42;7.75;;;1.98;;
61393;SDS011;48555;50.952;-0.120;2024-02-23T08:55:08;6.10;;;1.63;;
61393;SDS011;48555;50.952;-0.120;2024-02-23T08:57:34;7.60;;;1.80;;
61393;SDS011;48555;50.952;-0.120;2024-02-23T08:59:59;5.13;;;1.17;;
61393;SDS011;48555;50.952;-0.120;2024-02-23T09:02:25;5.63;;;1.85;;
61393;SDS011;48555;50.952;-0.120;2024-02-23T09:04:50;8.13;;;1.75;;
61393;SDS011;48555;50.952;-0.120;2024-02-23T09:07:16;7.38;;;1.65;;
61393;SDS011;48555;50.952;-0.120;2024-02-23T09:09:45;8.98;;;1.80;;
61393;SDS011;48555;50.952;-0.120;2024-02-23T09:12:10;11.32;;;1.80;;
61393;SDS011;48555;50.952;-0.120;2024-02-23T09:14:36;10.80;;;1.92;;
61393;SDS011;48555;50.952;-0.120;2024-02-23T09:17:03;7.45;;;1.67;;
61393;SDS011;48555;50.952;-0.120;2024-02-23T09:19:30;8.60;;;1.60;;
61393;SDS011;48555;50.952;-0.120;2024-02-23T09:21:56;6.18;;;1.80;;
61393;SDS011;48555;50.952;-0.120;2024-02-23T09:24:21;6.90;;;1.55;;
61393;SDS011;48555;50.952;-0.120;2024-02-23T09:26:47;7.68;;;1.63;;
61393;SDS011;48555;50.952;-0.120;2024-02-23T09:29:12;10.15;;;1.48;;
61393;SDS011;48555;50.952;-0.120;2024-02-23T09:31:38;8.68;;;1.63;;
61393;SDS011;48555;50.952;-0.120;2024-02-23T09:34:03;7.18;;;1.48;;
61393;SDS011;48555;50.952;-0.120;2024-02-23T09:36:28;9.63;;;1.55;;
61393;SDS011;48555;50.952;-0.120;2024-02-23T09:38:55;9.85;;;1.73;;
61393;SDS011;48555;50.952;-0.120;2024-02-23T09:41:21;10.48;;;1.65;;
61393;SDS011;48555;50.952;-0.120;2024-02-23T09:43:48;6.50;;;1.52;;
61393;SDS011;48555;50.952;-0.120;2024-02-23T09:46:14;6.13;;;1.27;;
61393;SDS011;48555;50.952;-0.120;2024-02-23T09:48:43;10.85;;;1.73;;
61393;SDS011;48555;50.952;-0.120;2024-02-23T09:51:10;11.25;;;2.03;;
61393;SDS011;48555;50.952;-0.120;2024-02-23T09:53:37;10.27;;;1.65;;
61393;SDS011;48555;50.952;-0.120;2024-02-23T09:56:02;7.60;;;1.70;;
61393;SDS011;48555;50.952;-0.120;2024-02-23T09:58:29;5.93;;;1.50;;
61393;SDS011;48555;50.952;-0.120;2024-02-23T10:00:59;7.15;;;1.77;;
61393;SDS011;48555;50.952;-0.120;2024-02-23T10:03:27;4.63;;;1.17;;
61393;SDS011;48555;50.952;-0.120;2024-02-23T10:05:55;9.50;;;1.98;;
61393;SDS011;48555;50.952;-0.120;2024-02-23T10:08:20;6.82;;;1.45;;
61393;SDS011;48555;50.952;-0.120;2024-02-23T10:10:46;7.80;;;1.92;;
61393;SDS011;48555;50.952;-0.120;2024-02-23T10:13:19;7.57;;;1.48;;
61393;SDS011;48555;50.952;-0.120;2024-02-23T10:15:46;6.78;;;1.60;;
61393;SDS011;48555;50.952;-0.120;2024-02-23T10:18:12;5.68;;;1.27;;
61393;SDS011;48555;50.952;-0.120;2024-02-23T10:20:38;5.68;;;1.38;;
61393;SDS011;48555;50.952;-0.120;2024-02-23T10:23:04;7.72;;;1.73;;
61393;SDS011;48555;50.952;-0.120;2024-02-23T10:25:29;9.32;;;1.58;;
61393;SDS011;48555;50.952;-0.120;2024-02-23T10:27:55;8.85;;;1.77;;
61393;SDS011;48555;50.952;-0.120;2024-02-23T10:30:20;9.30;;;2.13;;
61393;SDS011;48555;50.952;-0.120;2024-02-23T10:32:46;8.07;;;1.60;;
61393;SDS011;48555;50.952;-0.120;2024-02-23T10:35:14;7.72;;;1.98;;
61393;SDS011;48555;50.952;-0.120;2024-02-23T10:37:42;6.18;;;1.17;;
61393;SDS011;48555;50.952;-0.120;2024-02-23T10:40:09;9.98;;;1.63;;
61393;SDS011;48555;50.952;-0.120;2024-02-23T10:42:37;5.57;;;1.50;;
61393;SDS011;48555;50.952;-0.120;2024-02-23T10:45:03;10.40;;;2.00;;
61393;SDS011;48555;50.952;-0.120;2024-02-23T10:47:30;8.48;;;1.95;;
61393;SDS011;48555;50.952;-0.120;2024-02-23T10:49:58;7.43;;;1.80;;
61393;SDS011;48555;50.952;-0.120;2024-02-23T10:52:25;7.60;;;1.85;;
61393;SDS011;48555;50.952;-0.120;2024-02-23T10:54:51;6.97;;;1.60;;
61393;SDS011;48555;50.952;-0.120;2024-02-23T10:57:18;8.43;;;1.88;;
61393;SDS011;48555;50.952;-0.120;2024-02-23T10:59:46;4.50;;;1.20;;
61393;SDS011;48555;50.952;-0.120;2024-02-23T11:02:13;8.70;;;1.65;;
61393;SDS011;48555;50.952;-0.120;2024-02-23T11:04:45;5.87;;;1.53;;
61393;SDS011;48555;50.952;-0.120;2024-02-23T11:07:15;5.45;;;1.40;;
61393;SDS011;48555;50.952;-0.120;2024-02-23T11:09:43;9.15;;;1.95;;
61393;SDS011;48555;50.952;-0.120;2024-02-23T11:12:26;6.22;;;1.40;;
61393;SDS011;48555;50.952;-0.120;2024-02-23T11:14:58;7.85;;;2.00;;
61393;SDS011;48555;50.952;-0.120;2024-02-23T11:17:26;5.63;;;1.42;;
61393;SDS011;48555;50.952;-0.120;2024-02-23T11:19:54;6.88;;;1.45;;
61393;SDS011;48555;50.952;-0.120;2024-02-23T11:22:26;5.82;;;1.63;;
61393;SDS011;48555;50.952;-0.120;2024-02-23T11:24:59;7.57;;;1.48;;
61393;SDS011;48555;50.952;-0.120;2024-02-23T11:27:35;6.93;;;1.45;;
61393;SDS011;48555;50.952;-0.120;2024-02-23T11:30:10;4.75;;;1.52;;
61393;SDS011;48555;50.952;-0.120;2024-02-23T11:35:06;8.10;;;1.80;;
61393;SDS011;48555;50.952;-0.120;2024-02-23T11:37:32;10.43;;;1.60;;
61393;SDS011;48555;50.952;-0.120;2024-02-23T11:39:59;7.97;;;1.88;;
61393;SDS011;48555;50.952;-0.120;2024-02-23T11:42:26;8.38;;;1.80;;
61393;SDS011;48555;50.952;-0.120;2024-02-23T11:44:52;9.65;;;1.70;;
61393;SDS011;48555;50.952;-0.120;2024-02-23T11:47:18;11.73;;;1.65;;
61393;SDS011;48555;50.952;-0.120;2024-02-23T11:49:44;7.97;;;1.65;;
61393;SDS011;48555;50.952;-0.120;2024-02-23T11:52:09;8.85;;;1.52;;
61393;SDS011;48555;50.952;-0.120;2024-02-23T11:54:35;6.80;;;1.58;;
61393;SDS011;48555;50.952;-0.120;2024-02-23T11:57:00;7.32;;;1.40;;
61393;SDS011;48555;50.952;-0.120;2024-02-23T11:59:26;9.30;;;2.05;;
61393;SDS011;48555;50.952;-0.120;2024-02-23T12:01:51;9.10;;;2.03;;
61393;SDS011;48555;50.952;-0.120;2024-02-23T12:04:16;7.18;;;1.73;;
61393;SDS011;48555;50.952;-0.120;2024-02-23T12:06:42;9.60;;;1.83;;
61393;SDS011;48555;50.952;-0.120;2024-02-23T12:09:07;11.05;;;1.83;;
61393;SDS011;48555;50.952;-0.120;2024-02-23T12:11:33;8.18;;;2.13;;
61393;SDS011;48555;50.952;-0.120;2024-02-23T12:14:00;7.38;;;1.80;;
61393;SDS011;48555;50.952;-0.120;2024-02-23T12:16:27;7.35;;;1.60;;
61393;SDS011;48555;50.952;-0.120;2024-02-23T12:18:53;7.57;;;1.67;;
61393;SDS011;48555;50.952;-0.120;2024-02-23T12:21:20;7.15;;;1.50;;
61393;SDS011;48555;50.952;-0.120;2024-02-23T12:23:48;7.43;;;1.35;;
61393;SDS011;48555;50.952;-0.120;2024-02-23T12:26:14;7.70;;;2.10;;
61393;SDS011;48555;50.952;-0.120;2024-02-23T12:28:40;5.90;;;1.83;;
61393;SDS011;48555;50.952;-0.120;2024-02-23T12:31:06;10.50;;;1.88;;
61393;SDS011;48555;50.952;-0.120;2024-02-23T12:33:32;7.03;;;1.60;;
61393;SDS011;48555;50.952;-0.120;2024-02-23T12:36:03;8.70;;;1.65;;
61393;SDS011;48555;50.952;-0.120;2024-02-23T12:38:29;5.47;;;1.00;;
61393;SDS011;48555;50.952;-0.120;2024-02-23T12:40:55;7.38;;;1.13;;
61393;SDS011;48555;50.952;-0.120;2024-02-23T12:43:20;4.97;;;1.17;;
61393;SDS011;48555;50.952;-0.120;2024-02-23T12:45:49;6.72;;;1.42;;
61393;SDS011;48555;50.952;-0.120;2024-02-23T12:48:17;4.60;;;1.02;;
61393;SDS011;48555;50.952;-0.120;2024-02-23T12:50:43;4.75;;;1.00;;
61393;SDS011;48555;50.952;-0.120;2024-02-23T12:53:10;6.07;;;1.10;;
61393;SDS011;48555;50.952;-0.120;2024-02-23T12:55:54;6.95;;;1.25;;
61393;SDS011;48555;50.952;-0.120;2024-02-23T12:58:19;5.72;;;1.48;;
61393;SDS011;48555;50.952;-0.120;2024-02-23T13:00:45;5.40;;;1.13;;
61393;SDS011;48555;50.952;-0.120;2024-02-23T13:03:10;3.92;;;1.13;;
61393;SDS011;48555;50.952;-0.120;2024-02-23T13:05:35;8.63;;;1.30;;
61393;SDS011;48555;50.952;-0.120;2024-02-23T13:08:01;8.98;;;1.42;;
61393;SDS011;48555;50.952;-0.120;2024-02-23T13:10:26;4.90;;;1.05;;
61393;SDS011;48555;50.952;-0.120;2024-02-23T13:12:51;6.93;;;1.33;;
61393;SDS011;48555;50.952;-0.120;2024-02-23T13:15:17;7.60;;;1.10;;
61393;SDS011;48555;50.952;-0.120;2024-02-23T13:17:42;3.05;;;1.05;;
61393;SDS011;48555;50.952;-0.120;2024-02-23T13:20:08;6.78;;;0.95;;
61393;SDS011;48555;50.952;-0.120;2024-02-23T13:22:35;3.80;;;0.90;;
61393;SDS011;48555;50.952;-0.120;2024-02-23T13:25:01;5.57;;;0.95;;
61393;SDS011;48555;50.952;-0.120;2024-02-23T13:27:26;6.50;;;0.93;;
61393;SDS011;48555;50.952;-0.120;2024-02-23T13:29:51;5.30;;;0.73;;
61393;SDS011;48555;50.952;-0.120;2024-02-23T13:32:17;6.47;;;0.98;;
61393;SDS011;48555;50.952;-0.120;2024-02-23T13:34:42;3.35;;;0.75;;
61393;SDS011;48555;50.952;-0.120;2024-02-23T13:37:07;3.83;;;1.30;;
61393;SDS011;48555;50.952;-0.120;2024-02-23T13:39:32;5.60;;;1.17;;
61393;SDS011;48555;50.952;-0.120;2024-02-23T13:41:58;5.65;;;1.30;;
61393;SDS011;48555;50.952;-0.120;2024-02-23T13:44:24;5.60;;;0.93;;
61393;SDS011;48555;50.952;-0.120;2024-02-23T13:46:49;5.47;;;0.90;;
61393;SDS011;48555;50.952;-0.120;2024-02-23T13:49:14;8.73;;;1.13;;
61393;SDS011;48555;50.952;-0.120;2024-02-23T13:51:40;5.20;;;1.02;;
61393;SDS011;48555;50.952;-0.120;2024-02-23T13:54:05;4.43;;;0.93;;
61393;SDS011;48555;50.952;-0.120;2024-02-23T13:56:30;5.05;;;0.82;;
61393;SDS011;48555;50.952;-0.120;2024-02-23T13:58:56;6.47;;;0.68;;
61393;SDS011;48555;50.952;-0.120;2024-02-23T14:01:21;2.25;;;0.45;;
61393;SDS011;48555;50.952;-0.120;2024-02-23T14:03:46;5.32;;;1.13;;
61393;SDS011;48555;50.952;-0.120;2024-02-23T14:06:12;5.88;;;1.23;;
61393;SDS011;48555;50.952;-0.120;2024-02-23T14:08:37;5.78;;;0.90;;
61393;SDS011;48555;50.952;-0.120;2024-02-23T14:11:03;6.75;;;0.85;;
61393;SDS011;48555;50.952;-0.120;2024-02-23T14:13:32;6.80;;;0.90;;
61393;SDS011;48555;50.952;-0.120;2024-02-23T14:15:58;5.43;;;0.93;;
61393;SDS011;48555;50.952;-0.120;2024-02-23T14:18:23;6.75;;;1.77;;
61393;SDS011;48555;50.952;-0.120;2024-02-23T14:20:49;5.82;;;1.05;;
61393;SDS011;48555;50.952;-0.120;2024-02-23T14:23:17;4.15;;;0.73;;
61393;SDS011;48555;50.952;-0.120;2024-02-23T14:25:42;2.65;;;0.65;;
61393;SDS011;48555;50.952;-0.120;2024-02-23T14:28:08;3.47;;;0.85;;